sensor_id;sensor_type;location;lat;lon;timestamp;P1;durP1;ratioP1;P2;durP2;ratioP2
51048;SDS011;37084;55.228;36.450;2023-04-03T00:01:51;23.80;;;13.32;;
51048;SDS011;37084;55.228;36.450;2023-04-03T00:04:52;25.02;;;14.02;;
51048;SDS011;37084;55.228;36.450;2023-04-03T00:07:54;28.65;;;13.90;;
51048;SDS011;37084;55.228;36.450;2023-04-03T00:10:55;25.88;;;14.88;;
51048;SDS011;37084;55.228;36.450;2023-04-03T00:13:56;23.60;;;12.85;;
51048;SDS011;37084;55.228;36.450;2023-04-03T00:16:58;23.90;;;13.18;;
51048;SDS011;37084;55.228;36.450;2023-04-03T00:19:59;23.58;;;13.13;;
51048;SDS011;37084;55.228;36.450;2023-04-03T00:23:00;25.60;;;13.40;;
51048;SDS011;37084;55.228;36.450;2023-04-03T00:26:02;25.30;;;13.60;;
51048;SDS011;37084;55.228;36.450;2023-04-03T00:29:04;27.02;;;14.82;;
51048;SDS011;37084;55.228;36.450;2023-04-03T00:32:05;27.70;;;14.60;;
51048;SDS011;37084;55.228;36.450;2023-04-03T00:35:07;28.77;;;13.10;;
51048;SDS011;37084;55.228;36.450;2023-04-03T00:38:10;27.88;;;14.07;;
51048;SDS011;37084;55.228;36.450;2023-04-03T00:41:11;27.27;;;14.85;;
51048;SDS011;37084;55.228;36.450;2023-04-03T00:44:22;22.50;;;12.50;;
51048;SDS011;37084;55.228;36.450;2023-04-03T00:47:40;21.48;;;12.88;;
51048;SDS011;37084;55.228;36.450;2023-04-03T00:50:42;23.23;;;11.27;;
51048;SDS011;37084;55.228;36.450;2023-04-03T00:53:46;22.17;;;12.95;;
51048;SDS011;37084;55.228;36.450;2023-04-03T00:56:51;23.60;;;12.32;;
51048;SDS011;37084;55.228;36.450;2023-04-03T00:59:57;20.83;;;9.68;;
51048;SDS011;37084;55.228;36.450;2023-04-03T01:03:03;21.23;;;13.35;;
51048;SDS011;37084;55.228;36.450;2023-04-03T01:06:04;21.10;;;11.95;;
51048;SDS011;37084;55.228;36.450;2023-04-03T01:09:06;19.45;;;12.30;;
51048;SDS011;37084;55.228;36.450;2023-04-03T01:15:19;19.05;;;11.25;;
51048;SDS011;37084;55.228;36.450;2023-04-03T01:18:25;21.13;;;11.35;;
51048;SDS011;37084;55.228;36.450;2023-04-03T01:24:42;19.33;;;11.18;;
51048;SDS011;37084;55.228;36.450;2023-04-03T01:27:45;18.25;;;10.90;;
51048;SDS011;37084;55.228;36.450;2023-04-03T01:30:48;17.58;;;9.68;;
51048;SDS011;37084;55.228;36.450;2023-04-03T01:33:55;19.08;;;10.93;;
51048;SDS011;37084;55.228;36.450;2023-04-03T01:36:57;17.75;;;10.88;;
51048;SDS011;37084;55.228;36.450;2023-04-03T01:39:58;14.50;;;8.38;;
51048;SDS011;37084;55.228;36.450;2023-04-03T01:43:00;13.75;;;9.27;;
51048;SDS011;37084;55.228;36.450;2023-04-03T01:46:01;14.90;;;9.90;;
51048;SDS011;37084;55.228;36.450;2023-04-03T01:49:05;20.38;;;11.18;;
51048;SDS011;37084;55.228;36.450;2023-04-03T01:52:06;17.75;;;11.65;;
51048;SDS011;37084;55.228;36.450;2023-04-03T01:55:07;21.40;;;12.48;;
51048;SDS011;37084;55.228;36.450;2023-04-03T01:58:09;18.77;;;11.55;;
51048;SDS011;37084;55.228;36.450;2023-04-03T02:01:11;17.08;;;11.07;;
51048;SDS011;37084;55.228;36.450;2023-04-03T02:04:12;22.60;;;11.82;;
51048;SDS011;37084;55.228;36.450;2023-04-03T02:07:14;20.77;;;13.18;;
51048;SDS011;37084;55.228;36.450;2023-04-03T02:10:15;21.80;;;12.35;;
51048;SDS011;37084;55.228;36.450;2023-04-03T02:13:17;24.05;;;12.63;;
51048;SDS011;37084;55.228;36.450;2023-04-03T02:16:19;20.50;;;12.85;;
51048;SDS011;37084;55.228;36.450;2023-04-03T02:19:23;19.52;;;12.27;;
51048;SDS011;37084;55.228;36.450;2023-04-03T02:22:24;19.40;;;12.15;;
51048;SDS011;37084;55.228;36.450;2023-04-03T02:25:25;17.80;;;10.88;;
51048;SDS011;37084;55.228;36.450;2023-04-03T02:28:27;19.63;;;11.52;;
51048;SDS011;37084;55.228;36.450;2023-04-03T02:31:28;17.23;;;11.40;;
51048;SDS011;37084;55.228;36.450;2023-04-03T02:34:30;18.52;;;12.55;;
51048;SDS011;37084;55.228;36.450;2023-04-03T02:37:34;20.75;;;11.25;;
51048;SDS011;37084;55.228;36.450;2023-04-03T02:40:35;15.48;;;10.45;;
51048;SDS011;37084;55.228;36.450;2023-04-03T02:43:37;17.13;;;11.25;;
51048;SDS011;37084;55.228;36.450;2023-04-03T02:46:40;17.67;;;11.75;;
51048;SDS011;37084;55.228;36.450;2023-04-03T02:49:41;18.50;;;9.98;;
51048;SDS011;37084;55.228;36.450;2023-04-03T02:52:45;16.58;;;11.57;;
51048;SDS011;37084;55.228;36.450;2023-04-03T02:55:47;16.10;;;10.77;;
51048;SDS011;37084;55.228;36.450;2023-04-03T02:58:48;14.25;;;9.63;;
51048;SDS011;37084;55.228;36.450;2023-04-03T03:01:51;14.00;;;8.77;;
51048;SDS011;37084;55.228;36.450;2023-04-03T03:04:53;13.05;;;8.63;;
51048;SDS011;37084;55.228;36.450;2023-04-03T03:07:54;12.18;;;8.25;;
51048;SDS011;37084;55.228;36.450;2023-04-03T03:10:56;12.80;;;8.52;;
51048;SDS011;37084;55.228;36.450;2023-04-03T03:13:58;13.85;;;8.65;;
51048;SDS011;37084;55.228;36.450;2023-04-03T03:17:00;17.15;;;9.35;;
51048;SDS011;37084;55.228;36.450;2023-04-03T03:20:01;21.90;;;12.95;;
51048;SDS011;37084;55.228;36.450;2023-04-03T03:23:04;19.27;;;11.13;;
51048;SDS011;37084;55.228;36.450;2023-04-03T03:26:07;13.93;;;8.98;;
51048;SDS011;37084;55.228;36.450;2023-04-03T03:29:09;12.75;;;8.82;;
51048;SDS011;37084;55.228;36.450;2023-04-03T03:32:11;12.48;;;8.55;;
51048;SDS011;37084;55.228;36.450;2023-04-03T03:35:12;13.73;;;9.07;;
51048;SDS011;37084;55.228;36.450;2023-04-03T03:38:14;13.55;;;7.28;;
51048;SDS011;37084;55.228;36.450;2023-04-03T03:41:15;14.23;;;9.25;;
51048;SDS011;37084;55.228;36.450;2023-04-03T03:44:19;15.73;;;9.88;;
51048;SDS011;37084;55.228;36.450;2023-04-03T03:47:21;15.50;;;9.82;;
51048;SDS011;37084;55.228;36.450;2023-04-03T03:50:23;15.93;;;10.43;;
51048;SDS011;37084;55.228;36.450;2023-04-03T03:53:25;17.08;;;10.68;;
51048;SDS011;37084;55.228;36.450;2023-04-03T03:56:30;18.13;;;10.43;;
51048;SDS011;37084;55.228;36.450;2023-04-03T03:59:32;14.05;;;10.15;;
51048;SDS011;37084;55.228;36.450;2023-04-03T04:02:34;14.40;;;10.38;;
51048;SDS011;37084;55.228;36.450;2023-04-03T04:05:35;16.92;;;11.38;;
51048;SDS011;37084;55.228;36.450;2023-04-03T04:08:37;16.45;;;10.52;;
51048;SDS011;37084;55.228;36.450;2023-04-03T04:11:41;15.48;;;10.27;;
51048;SDS011;37084;55.228;36.450;2023-04-03T04:14:46;14.27;;;9.50;;
51048;SDS011;37084;55.228;36.450;2023-04-03T04:17:48;11.85;;;8.65;;
51048;SDS011;37084;55.228;36.450;2023-04-03T04:20:49;12.05;;;6.90;;
51048;SDS011;37084;55.228;36.450;2023-04-03T04:23:52;11.40;;;8.45;;
51048;SDS011;37084;55.228;36.450;2023-04-03T04:26:54;12.88;;;8.70;;
51048;SDS011;37084;55.228;36.450;2023-04-03T04:29:56;13.85;;;9.35;;
51048;SDS011;37084;55.228;36.450;2023-04-03T04:32:58;12.63;;;7.30;;
51048;SDS011;37084;55.228;36.450;2023-04-03T04:36:00;15.82;;;9.98;;
51048;SDS011;37084;55.228;36.450;2023-04-03T04:39:21;11.70;;;9.13;;
51048;SDS011;37084;55.228;36.450;2023-04-03T04:42:23;14.10;;;9.45;;
51048;SDS011;37084;55.228;36.450;2023-04-03T04:45:25;11.73;;;7.82;;
51048;SDS011;37084;55.228;36.450;2023-04-03T04:48:27;13.43;;;7.43;;
51048;SDS011;37084;55.228;36.450;2023-04-03T04:51:28;12.82;;;9.82;;
51048;SDS011;37084;55.228;36.450;2023-04-03T04:54:31;24.80;;;13.52;;
51048;SDS011;37084;55.228;36.450;2023-04-03T04:57:32;12.98;;;9.25;;
51048;SDS011;37084;55.228;36.450;2023-04-03T05:00:35;11.05;;;8.50;;
51048;SDS011;37084;55.228;36.450;2023-04-03T05:03:37;12.85;;;9.48;;
51048;SDS011;37084;55.228;36.450;2023-04-03T05:06:39;15.00;;;9.40;;
51048;SDS011;37084;55.228;36.450;2023-04-03T05:09:45;15.23;;;9.63;;
51048;SDS011;37084;55.228;36.450;2023-04-03T05:12:48;13.60;;;9.85;;
51048;SDS011;37084;55.228;36.450;2023-04-03T05:15:50;18.02;;;10.43;;
51048;SDS011;37084;55.228;36.450;2023-04-03T05:18:55;14.88;;;10.32;;
51048;SDS011;37084;55.228;36.450;2023-04-03T05:21:57;14.63;;;10.13;;
51048;SDS011;37084;55.228;36.450;2023-04-03T05:24:59;15.18;;;9.68;;
51048;SDS011;37084;55.228;36.450;2023-04-03T05:28:01;13.48;;;7.35;;
51048;SDS011;37084;55.228;36.450;2023-04-03T05:31:03;15.55;;;9.88;;
51048;SDS011;37084;55.228;36.450;2023-04-03T05:34:09;14.35;;;9.70;;
51048;SDS011;37084;55.228;36.450;2023-04-03T05:37:12;24.92;;;10.00;;
51048;SDS011;37084;55.228;36.450;2023-04-03T05:40:14;15.02;;;9.10;;
51048;SDS011;37084;55.228;36.450;2023-04-03T05:43:18;14.27;;;9.55;;
51048;SDS011;37084;55.228;36.450;2023-04-03T05:46:20;16.88;;;9.63;;
51048;SDS011;37084;55.228;36.450;2023-04-03T05:49:26;17.23;;;10.85;;
51048;SDS011;37084;55.228;36.450;2023-04-03T05:52:29;13.27;;;9.15;;
51048;SDS011;37084;55.228;36.450;2023-04-03T05:55:32;16.77;;;9.90;;
51048;SDS011;37084;55.228;36.450;2023-04-03T05:58:33;15.98;;;11.27;;
51048;SDS011;37084;55.228;36.450;2023-04-03T06:01:35;14.82;;;10.50;;
51048;SDS011;37084;55.228;36.450;2023-04-03T06:04:36;15.85;;;10.93;;
51048;SDS011;37084;55.228;36.450;2023-04-03T06:07:38;17.02;;;10.02;;
51048;SDS011;37084;55.228;36.450;2023-04-03T06:10:40;12.70;;;8.95;;
51048;SDS011;37084;55.228;36.450;2023-04-03T06:13:41;14.90;;;9.95;;
51048;SDS011;37084;55.228;36.450;2023-04-03T06:16:42;15.88;;;8.75;;
51048;SDS011;37084;55.228;36.450;2023-04-03T06:19:44;15.82;;;9.50;;
51048;SDS011;37084;55.228;36.450;2023-04-03T06:22:46;14.85;;;9.63;;
51048;SDS011;37084;55.228;36.450;2023-04-03T06:25:48;15.15;;;9.73;;
51048;SDS011;37084;55.228;36.450;2023-04-03T06:28:49;14.52;;;9.18;;
51048;SDS011;37084;55.228;36.450;2023-04-03T06:31:51;12.48;;;9.00;;
51048;SDS011;37084;55.228;36.450;2023-04-03T06:34:52;15.60;;;9.82;;
51048;SDS011;37084;55.228;36.450;2023-04-03T06:37:54;16.33;;;10.27;;
51048;SDS011;37084;55.228;36.450;2023-04-03T06:40:55;16.70;;;10.85;;
51048;SDS011;37084;55.228;36.450;2023-04-03T06:43:56;17.58;;;9.90;;
51048;SDS011;37084;55.228;36.450;2023-04-03T06:46:58;13.65;;;9.40;;
51048;SDS011;37084;55.228;36.450;2023-04-03T06:50:00;17.55;;;9.18;;
51048;SDS011;37084;55.228;36.450;2023-04-03T06:53:01;14.57;;;10.05;;
51048;SDS011;37084;55.228;36.450;2023-04-03T06:56:03;14.63;;;10.02;;
51048;SDS011;37084;55.228;36.450;2023-04-03T06:59:04;13.82;;;9.52;;
51048;SDS011;37084;55.228;36.450;2023-04-03T07:02:06;13.23;;;9.55;;
51048;SDS011;37084;55.228;36.450;2023-04-03T07:05:07;13.55;;;9.88;;
51048;SDS011;37084;55.228;36.450;2023-04-03T07:08:09;14.70;;;10.00;;
51048;SDS011;37084;55.228;36.450;2023-04-03T07:11:11;13.88;;;8.75;;
51048;SDS011;37084;55.228;36.450;2023-04-03T07:14:13;16.48;;;9.45;;
51048;SDS011;37084;55.228;36.450;2023-04-03T07:17:14;12.90;;;9.40;;
51048;SDS011;37084;55.228;36.450;2023-04-03T07:20:15;14.43;;;7.53;;
51048;SDS011;37084;55.228;36.450;2023-04-03T07:23:17;14.98;;;9.00;;
51048;SDS011;37084;55.228;36.450;2023-04-03T07:26:19;11.15;;;7.78;;
51048;SDS011;37084;55.228;36.450;2023-04-03T07:29:21;13.63;;;9.23;;
51048;SDS011;37084;55.228;36.450;2023-04-03T07:32:22;13.32;;;9.07;;
51048;SDS011;37084;55.228;36.450;2023-04-03T07:35:24;12.60;;;8.60;;
51048;SDS011;37084;55.228;36.450;2023-04-03T07:38:25;13.02;;;8.25;;
51048;SDS011;37084;55.228;36.450;2023-04-03T07:41:26;12.45;;;9.25;;
51048;SDS011;37084;55.228;36.450;2023-04-03T07:44:29;11.15;;;9.13;;
51048;SDS011;37084;55.228;36.450;2023-04-03T07:47:31;15.80;;;8.95;;
51048;SDS011;37084;55.228;36.450;2023-04-03T07:50:32;12.70;;;9.20;;
51048;SDS011;37084;55.228;36.450;2023-04-03T07:53:34;14.60;;;9.93;;
51048;SDS011;37084;55.228;36.450;2023-04-03T07:56:35;16.10;;;9.93;;
51048;SDS011;37084;55.228;36.450;2023-04-03T07:59:37;12.05;;;8.95;;
51048;SDS011;37084;55.228;36.450;2023-04-03T08:02:38;15.95;;;10.32;;
51048;SDS011;37084;55.228;36.450;2023-04-03T08:05:40;11.45;;;8.43;;
51048;SDS011;37084;55.228;36.450;2023-04-03T08:08:42;14.02;;;8.85;;
51048;SDS011;37084;55.228;36.450;2023-04-03T08:11:44;12.13;;;7.40;;
51048;SDS011;37084;55.228;36.450;2023-04-03T08:14:45;11.93;;;8.98;;
51048;SDS011;37084;55.228;36.450;2023-04-03T08:17:46;15.02;;;9.40;;
51048;SDS011;37084;55.228;36.450;2023-04-03T08:20:48;12.07;;;8.60;;
51048;SDS011;37084;55.228;36.450;2023-04-03T08:23:49;11.98;;;8.30;;
51048;SDS011;37084;55.228;36.450;2023-04-03T08:26:51;12.60;;;8.60;;
51048;SDS011;37084;55.228;36.450;2023-04-03T08:29:52;12.45;;;9.38;;
51048;SDS011;37084;55.228;36.450;2023-04-03T08:32:53;10.35;;;7.32;;
51048;SDS011;37084;55.228;36.450;2023-04-03T08:35:54;13.68;;;9.30;;
51048;SDS011;37084;55.228;36.450;2023-04-03T08:38:56;14.88;;;9.18;;
51048;SDS011;37084;55.228;36.450;2023-04-03T08:41:58;12.05;;;9.25;;
51048;SDS011;37084;55.228;36.450;2023-04-03T08:45:05;15.45;;;9.60;;
51048;SDS011;37084;55.228;36.450;2023-04-03T08:48:31;12.18;;;8.50;;
51048;SDS011;37084;55.228;36.450;2023-04-03T08:51:44;15.05;;;10.18;;
51048;SDS011;37084;55.228;36.450;2023-04-03T09:01:05;12.30;;;7.72;;
51048;SDS011;37084;55.228;36.450;2023-04-03T09:04:14;14.93;;;9.20;;
51048;SDS011;37084;55.228;36.450;2023-04-03T09:07:19;13.45;;;9.27;;
51048;SDS011;37084;55.228;36.450;2023-04-03T09:10:30;12.63;;;7.50;;
51048;SDS011;37084;55.228;36.450;2023-04-03T09:13:46;12.25;;;9.70;;
51048;SDS011;37084;55.228;36.450;2023-04-03T09:23:58;13.25;;;8.95;;
51048;SDS011;37084;55.228;36.450;2023-04-03T09:27:03;12.52;;;9.43;;
51048;SDS011;37084;55.228;36.450;2023-04-03T09:30:06;12.77;;;8.38;;
51048;SDS011;37084;55.228;36.450;2023-04-03T09:33:12;11.93;;;8.77;;
51048;SDS011;37084;55.228;36.450;2023-04-03T09:36:36;13.00;;;9.40;;
51048;SDS011;37084;55.228;36.450;2023-04-03T09:43:32;12.85;;;8.82;;
51048;SDS011;37084;55.228;36.450;2023-04-03T09:46:35;12.00;;;6.93;;
51048;SDS011;37084;55.228;36.450;2023-04-03T09:49:40;10.43;;;6.22;;
51048;SDS011;37084;55.228;36.450;2023-04-03T09:52:41;10.38;;;6.93;;
51048;SDS011;37084;55.228;36.450;2023-04-03T09:55:44;10.30;;;7.25;;
51048;SDS011;37084;55.228;36.450;2023-04-03T10:02:02;10.68;;;7.22;;
51048;SDS011;37084;55.228;36.450;2023-04-03T10:05:39;9.30;;;5.70;;
51048;SDS011;37084;55.228;36.450;2023-04-03T10:08:39;10.02;;;7.30;;
51048;SDS011;37084;55.228;36.450;2023-04-03T10:12:26;7.93;;;5.18;;
51048;SDS011;37084;55.228;36.450;2023-04-03T10:15:10;10.18;;;6.28;;
51048;SDS011;37084;55.228;36.450;2023-04-03T10:22:04;11.27;;;6.03;;
51048;SDS011;37084;55.228;36.450;2023-04-03T10:25:18;7.68;;;5.65;;
51048;SDS011;37084;55.228;36.450;2023-04-03T10:28:26;8.63;;;6.40;;
51048;SDS011;37084;55.228;36.450;2023-04-03T10:31:50;9.77;;;5.60;;
51048;SDS011;37084;55.228;36.450;2023-04-03T10:38:48;12.07;;;5.82;;
51048;SDS011;37084;55.228;36.450;2023-04-03T10:48:33;8.00;;;6.15;;
51048;SDS011;37084;55.228;36.450;2023-04-03T10:51:38;8.48;;;6.22;;
51048;SDS011;37084;55.228;36.450;2023-04-03T11:01:31;10.43;;;5.95;;
51048;SDS011;37084;55.228;36.450;2023-04-03T11:04:35;8.52;;;5.18;;
51048;SDS011;37084;55.228;36.450;2023-04-03T11:07:40;8.77;;;5.18;;
51048;SDS011;37084;55.228;36.450;2023-04-03T11:10:45;7.75;;;4.88;;
51048;SDS011;37084;55.228;36.450;2023-04-03T11:17:41;9.23;;;5.05;;
51048;SDS011;37084;55.228;36.450;2023-04-03T11:20:20;5.97;;;4.38;;
51048;SDS011;37084;55.228;36.450;2023-04-03T11:23:39;7.47;;;4.85;;
51048;SDS011;37084;55.228;36.450;2023-04-03T11:26:43;5.88;;;3.70;;
51048;SDS011;37084;55.228;36.450;2023-04-03T11:29:46;6.18;;;4.28;;
51048;SDS011;37084;55.228;36.450;2023-04-03T11:33:03;7.93;;;4.68;;
51048;SDS011;37084;55.228;36.450;2023-04-03T11:36:11;6.22;;;3.83;;
51048;SDS011;37084;55.228;36.450;2023-04-03T11:39:35;7.18;;;4.28;;
51048;SDS011;37084;55.228;36.450;2023-04-03T11:42:39;7.20;;;4.30;;
51048;SDS011;37084;55.228;36.450;2023-04-03T11:45:50;8.13;;;5.00;;
51048;SDS011;37084;55.228;36.450;2023-04-03T11:48:56;7.25;;;4.05;;
51048;SDS011;37084;55.228;36.450;2023-04-03T11:51:57;7.40;;;4.50;;
51048;SDS011;37084;55.228;36.450;2023-04-03T11:54:58;6.55;;;4.15;;
51048;SDS011;37084;55.228;36.450;2023-04-03T12:04:40;6.13;;;3.60;;
51048;SDS011;37084;55.228;36.450;2023-04-03T12:11:30;7.00;;;3.85;;
51048;SDS011;37084;55.228;36.450;2023-04-03T12:14:32;4.90;;;3.90;;
51048;SDS011;37084;55.228;36.450;2023-04-03T12:17:34;3.47;;;2.42;;
51048;SDS011;37084;55.228;36.450;2023-04-03T12:24:23;5.95;;;4.00;;
51048;SDS011;37084;55.228;36.450;2023-04-03T12:27:40;6.47;;;3.83;;
51048;SDS011;37084;55.228;36.450;2023-04-03T12:30:43;5.13;;;3.80;;
51048;SDS011;37084;55.228;36.450;2023-04-03T12:37:03;5.82;;;3.67;;
51048;SDS011;37084;55.228;36.450;2023-04-03T12:43:44;5.60;;;4.00;;
51048;SDS011;37084;55.228;36.450;2023-04-03T12:47:16;7.25;;;3.30;;
51048;SDS011;37084;55.228;36.450;2023-04-03T12:50:24;6.07;;;4.00;;
51048;SDS011;37084;55.228;36.450;2023-04-03T12:53:36;8.38;;;5.03;;
51048;SDS011;37084;55.228;36.450;2023-04-03T12:56:39;6.15;;;4.47;;
51048;SDS011;37084;55.228;36.450;2023-04-03T12:59:40;6.95;;;5.00;;
51048;SDS011;37084;55.228;36.450;2023-04-03T13:02:44;7.60;;;4.75;;
51048;SDS011;37084;55.228;36.450;2023-04-03T13:05:45;8.75;;;4.22;;
51048;SDS011;37084;55.228;36.450;2023-04-03T13:08:50;11.43;;;4.47;;
51048;SDS011;37084;55.228;36.450;2023-04-03T13:12:14;7.00;;;4.78;;
51048;SDS011;37084;55.228;36.450;2023-04-03T13:15:17;6.13;;;4.60;;
51048;SDS011;37084;55.228;36.450;2023-04-03T13:18:31;7.30;;;4.25;;
51048;SDS011;37084;55.228;36.450;2023-04-03T13:21:34;11.07;;;4.07;;
51048;SDS011;37084;55.228;36.450;2023-04-03T13:24:36;6.75;;;4.43;;
51048;SDS011;37084;55.228;36.450;2023-04-03T13:27:38;4.97;;;3.08;;
51048;SDS011;37084;55.228;36.450;2023-04-03T13:34:19;5.00;;;3.78;;
51048;SDS011;37084;55.228;36.450;2023-04-03T13:37:32;6.03;;;3.60;;
51048;SDS011;37084;55.228;36.450;2023-04-03T13:40:35;5.28;;;4.07;;
51048;SDS011;37084;55.228;36.450;2023-04-03T13:43:57;8.07;;;5.05;;
51048;SDS011;37084;55.228;36.450;2023-04-03T13:47:18;5.90;;;3.88;;
51048;SDS011;37084;55.228;36.450;2023-04-03T13:50:25;5.80;;;3.58;;
51048;SDS011;37084;55.228;36.450;2023-04-03T13:53:30;5.43;;;3.78;;
51048;SDS011;37084;55.228;36.450;2023-04-03T13:56:35;5.53;;;3.22;;
51048;SDS011;37084;55.228;36.450;2023-04-03T13:59:38;5.85;;;3.90;;
51048;SDS011;37084;55.228;36.450;2023-04-03T14:02:40;4.43;;;3.45;;
51048;SDS011;37084;55.228;36.450;2023-04-03T14:05:43;7.20;;;4.28;;
51048;SDS011;37084;55.228;36.450;2023-04-03T14:08:46;6.35;;;4.50;;
51048;SDS011;37084;55.228;36.450;2023-04-03T14:11:52;5.82;;;4.38;;
51048;SDS011;37084;55.228;36.450;2023-04-03T14:14:55;7.65;;;4.63;;
51048;SDS011;37084;55.228;36.450;2023-04-03T14:17:56;4.05;;;3.22;;
51048;SDS011;37084;55.228;36.450;2023-04-03T14:20:58;6.57;;;4.22;;
51048;SDS011;37084;55.228;36.450;2023-04-03T14:23:59;7.50;;;4.50;;
51048;SDS011;37084;55.228;36.450;2023-04-03T14:27:08;5.78;;;4.35;;
51048;SDS011;37084;55.228;36.450;2023-04-03T14:30:27;6.10;;;4.18;;
51048;SDS011;37084;55.228;36.450;2023-04-03T14:33:30;5.63;;;3.97;;
51048;SDS011;37084;55.228;36.450;2023-04-03T14:36:35;6.10;;;3.05;;
51048;SDS011;37084;55.228;36.450;2023-04-03T14:39:36;7.13;;;4.25;;
51048;SDS011;37084;55.228;36.450;2023-04-03T14:42:38;6.40;;;4.18;;
51048;SDS011;37084;55.228;36.450;2023-04-03T14:45:39;6.45;;;4.00;;
51048;SDS011;37084;55.228;36.450;2023-04-03T14:48:40;6.05;;;4.20;;
51048;SDS011;37084;55.228;36.450;2023-04-03T14:51:41;7.03;;;4.35;;
51048;SDS011;37084;55.228;36.450;2023-04-03T14:54:43;5.40;;;4.28;;
51048;SDS011;37084;55.228;36.450;2023-04-03T14:57:44;6.40;;;4.80;;
51048;SDS011;37084;55.228;36.450;2023-04-03T15:00:46;8.80;;;5.20;;
51048;SDS011;37084;55.228;36.450;2023-04-03T15:03:47;7.50;;;4.85;;
51048;SDS011;37084;55.228;36.450;2023-04-03T15:06:48;11.15;;;7.10;;
51048;SDS011;37084;55.228;36.450;2023-04-03T15:09:50;15.35;;;10.13;;
51048;SDS011;37084;55.228;36.450;2023-04-03T15:12:51;8.25;;;5.53;;
51048;SDS011;37084;55.228;36.450;2023-04-03T15:15:53;12.38;;;6.38;;
51048;SDS011;37084;55.228;36.450;2023-04-03T15:18:54;7.55;;;5.80;;
51048;SDS011;37084;55.228;36.450;2023-04-03T15:21:56;10.05;;;5.45;;
51048;SDS011;37084;55.228;36.450;2023-04-03T15:24:57;7.65;;;6.20;;
51048;SDS011;37084;55.228;36.450;2023-04-03T15:27:59;8.70;;;5.68;;
51048;SDS011;37084;55.228;36.450;2023-04-03T15:31:00;8.60;;;5.10;;
51048;SDS011;37084;55.228;36.450;2023-04-03T15:34:02;7.13;;;5.65;;
51048;SDS011;37084;55.228;36.450;2023-04-03T15:37:04;8.45;;;5.75;;
51048;SDS011;37084;55.228;36.450;2023-04-03T15:40:06;8.85;;;5.65;;
51048;SDS011;37084;55.228;36.450;2023-04-03T15:43:08;8.93;;;6.32;;
51048;SDS011;37084;55.228;36.450;2023-04-03T15:59:39;9.77;;;5.95;;
51048;SDS011;37084;55.228;36.450;2023-04-03T16:02:41;8.23;;;4.95;;
51048;SDS011;37084;55.228;36.450;2023-04-03T16:05:44;9.57;;;5.45;;
51048;SDS011;37084;55.228;36.450;2023-04-03T16:08:45;12.65;;;6.10;;
51048;SDS011;37084;55.228;36.450;2023-04-03T16:11:47;9.85;;;6.32;;
51048;SDS011;37084;55.228;36.450;2023-04-03T16:14:48;11.65;;;6.85;;
51048;SDS011;37084;55.228;36.450;2023-04-03T16:17:49;12.50;;;6.47;;
51048;SDS011;37084;55.228;36.450;2023-04-03T16:20:51;11.75;;;6.10;;
51048;SDS011;37084;55.228;36.450;2023-04-03T16:23:53;12.52;;;6.93;;
51048;SDS011;37084;55.228;36.450;2023-04-03T16:26:54;12.85;;;7.35;;
51048;SDS011;37084;55.228;36.450;2023-04-03T16:57:58;10.07;;;5.93;;
51048;SDS011;37084;55.228;36.450;2023-04-03T17:01:08;8.32;;;5.65;;
51048;SDS011;37084;55.228;36.450;2023-04-03T17:04:10;8.55;;;5.13;;
51048;SDS011;37084;55.228;36.450;2023-04-03T17:07:13;9.80;;;5.53;;
51048;SDS011;37084;55.228;36.450;2023-04-03T17:10:14;10.20;;;5.60;;
51048;SDS011;37084;55.228;36.450;2023-04-03T17:13:16;8.30;;;5.00;;
51048;SDS011;37084;55.228;36.450;2023-04-03T17:16:17;10.80;;;5.75;;
51048;SDS011;37084;55.228;36.450;2023-04-03T17:19:18;10.20;;;5.82;;
51048;SDS011;37084;55.228;36.450;2023-04-03T17:22:19;11.10;;;5.60;;
51048;SDS011;37084;55.228;36.450;2023-04-03T17:25:21;8.65;;;5.30;;
51048;SDS011;37084;55.228;36.450;2023-04-03T17:28:22;8.63;;;5.78;;
51048;SDS011;37084;55.228;36.450;2023-04-03T17:31:28;10.48;;;5.40;;
51048;SDS011;37084;55.228;36.450;2023-04-03T17:34:29;9.10;;;5.25;;
51048;SDS011;37084;55.228;36.450;2023-04-03T17:37:30;11.35;;;5.68;;
51048;SDS011;37084;55.228;36.450;2023-04-03T17:40:31;10.27;;;5.60;;
51048;SDS011;37084;55.228;36.450;2023-04-03T17:43:33;9.45;;;5.32;;
51048;SDS011;37084;55.228;36.450;2023-04-03T17:46:35;11.88;;;5.57;;
51048;SDS011;37084;55.228;36.450;2023-04-03T17:49:38;10.45;;;5.35;;
51048;SDS011;37084;55.228;36.450;2023-04-03T17:52:39;8.80;;;5.32;;
51048;SDS011;37084;55.228;36.450;2023-04-03T17:55:40;10.77;;;5.32;;
51048;SDS011;37084;55.228;36.450;2023-04-03T17:58:42;9.30;;;5.57;;
51048;SDS011;37084;55.228;36.450;2023-04-03T18:01:44;10.60;;;5.47;;
51048;SDS011;37084;55.228;36.450;2023-04-03T18:04:49;8.48;;;5.50;;
51048;SDS011;37084;55.228;36.450;2023-04-03T18:07:52;11.15;;;5.72;;
51048;SDS011;37084;55.228;36.450;2023-04-03T18:10:53;11.05;;;5.95;;
51048;SDS011;37084;55.228;36.450;2023-04-03T18:13:56;9.55;;;5.82;;
51048;SDS011;37084;55.228;36.450;2023-04-03T18:16:58;10.15;;;5.55;;
51048;SDS011;37084;55.228;36.450;2023-04-03T18:20:00;11.45;;;5.75;;
51048;SDS011;37084;55.228;36.450;2023-04-03T18:23:01;11.75;;;5.80;;
51048;SDS011;37084;55.228;36.450;2023-04-03T18:26:02;12.85;;;5.93;;
51048;SDS011;37084;55.228;36.450;2023-04-03T18:29:04;12.00;;;5.97;;
51048;SDS011;37084;55.228;36.450;2023-04-03T18:32:07;11.80;;;6.32;;
51048;SDS011;37084;55.228;36.450;2023-04-03T18:35:10;11.65;;;6.22;;
51048;SDS011;37084;55.228;36.450;2023-04-03T18:38:11;12.80;;;5.95;;
51048;SDS011;37084;55.228;36.450;2023-04-03T18:41:13;10.90;;;5.90;;
51048;SDS011;37084;55.228;36.450;2023-04-03T18:44:17;8.23;;;5.10;;
51048;SDS011;37084;55.228;36.450;2023-04-03T18:47:20;10.65;;;5.90;;
51048;SDS011;37084;55.228;36.450;2023-04-03T18:50:21;9.70;;;5.38;;
51048;SDS011;37084;55.228;36.450;2023-04-03T18:53:23;9.93;;;6.07;;
51048;SDS011;37084;55.228;36.450;2023-04-03T18:56:24;12.65;;;5.72;;
51048;SDS011;37084;55.228;36.450;2023-04-03T18:59:26;12.45;;;6.28;;
51048;SDS011;37084;55.228;36.450;2023-04-03T19:02:27;15.52;;;8.15;;
51048;SDS011;37084;55.228;36.450;2023-04-03T19:05:29;13.05;;;7.10;;
51048;SDS011;37084;55.228;36.450;2023-04-03T19:08:31;14.18;;;7.85;;
51048;SDS011;37084;55.228;36.450;2023-04-03T19:11:32;13.60;;;6.88;;
51048;SDS011;37084;55.228;36.450;2023-04-03T19:14:34;12.48;;;6.55;;
51048;SDS011;37084;55.228;36.450;2023-04-03T19:17:37;13.18;;;7.05;;
51048;SDS011;37084;55.228;36.450;2023-04-03T19:20:39;12.02;;;7.10;;
51048;SDS011;37084;55.228;36.450;2023-04-03T19:23:40;13.05;;;6.63;;
51048;SDS011;37084;55.228;36.450;2023-04-03T19:26:44;9.75;;;5.50;;
51048;SDS011;37084;55.228;36.450;2023-04-03T19:29:47;13.70;;;6.30;;
51048;SDS011;37084;55.228;36.450;2023-04-03T19:32:49;9.57;;;6.10;;
51048;SDS011;37084;55.228;36.450;2023-04-03T19:35:51;13.75;;;7.07;;
51048;SDS011;37084;55.228;36.450;2023-04-03T19:38:52;11.43;;;6.45;;
51048;SDS011;37084;55.228;36.450;2023-04-03T19:41:53;9.63;;;6.68;;
51048;SDS011;37084;55.228;36.450;2023-04-03T19:44:58;11.55;;;5.95;;
51048;SDS011;37084;55.228;36.450;2023-04-03T19:47:59;11.52;;;6.03;;
51048;SDS011;37084;55.228;36.450;2023-04-03T19:51:01;10.00;;;5.88;;
51048;SDS011;37084;55.228;36.450;2023-04-03T19:54:07;9.25;;;5.95;;